createdAt,value
2023-08-26T00:00:20.558Z,21.70
2023-08-26T00:02:47.357Z,21.70
2023-08-26T00:05:16.607Z,21.60
2023-08-26T00:07:43.451Z,21.60
2023-08-26T00:10:10.197Z,21.60
2023-08-26T00:12:37.109Z,21.60
2023-08-26T00:15:06.866Z,21.60
2023-08-26T00:17:34.066Z,21.70
2023-08-26T00:20:07.585Z,21.60
2023-08-26T00:22:34.404Z,21.60
2023-08-26T00:25:01.169Z,21.60
2023-08-26T00:27:27.981Z,21.60
2023-08-26T00:29:54.730Z,21.50
2023-08-26T00:32:21.605Z,21.50
2023-08-26T00:34:48.345Z,21.50
2023-08-26T00:37:15.341Z,21.50
2023-08-26T00:39:44.653Z,21.50
2023-08-26T00:42:11.470Z,21.50
2023-08-26T00:44:38.284Z,21.50
2023-08-26T00:47:05.164Z,21.50
2023-08-26T00:49:35.211Z,21.50
2023-08-26T00:52:02.369Z,21.50
2023-08-26T00:54:33.390Z,21.50
2023-08-26T00:57:00.568Z,21.50
2023-08-26T00:59:27.686Z,21.50
2023-08-26T01:01:55.772Z,21.50
2023-08-26T01:04:22.607Z,21.50
2023-08-26T01:06:49.451Z,21.50
2023-08-26T01:09:16.294Z,21.50
2023-08-26T01:11:50.128Z,21.40
2023-08-26T01:14:23.151Z,21.40
2023-08-26T01:16:50.265Z,21.40
2023-08-26T01:19:22.296Z,21.40
2023-08-26T01:21:53.397Z,21.40
2023-08-26T01:24:23.158Z,21.40
2023-08-26T01:26:50.906Z,21.40
2023-08-26T01:29:20.084Z,21.40
2023-08-26T01:31:51.613Z,21.40
2023-08-26T01:34:24.599Z,21.40
2023-08-26T01:36:51.874Z,21.40
2023-08-26T01:39:19.651Z,21.30
2023-08-26T01:41:49.513Z,21.30
2023-08-26T01:44:19.000Z,21.30
2023-08-26T01:46:48.974Z,21.30
2023-08-26T01:49:15.963Z,21.30
2023-08-26T01:51:44.896Z,21.20
2023-08-26T01:54:11.716Z,21.20
2023-08-26T01:56:40.970Z,21.20
2023-08-26T01:59:13.037Z,21.20
2023-08-26T02:01:39.950Z,21.20
2023-08-26T02:04:09.295Z,21.20
2023-08-26T02:06:36.337Z,21.10
2023-08-26T02:09:03.189Z,21.10
2023-08-26T02:11:32.154Z,21.10
2023-08-26T02:14:01.006Z,21.10
2023-08-26T02:16:27.884Z,21.10
2023-08-26T02:18:54.635Z,21.00
2023-08-26T02:21:23.868Z,21.00
2023-08-26T02:23:53.446Z,21.10
2023-08-26T02:26:22.465Z,21.00
2023-08-26T02:28:49.552Z,21.00
2023-08-26T02:31:16.439Z,21.00
2023-08-26T02:33:45.198Z,20.90
2023-08-26T02:36:12.268Z,21.00
2023-08-26T02:38:39.021Z,21.00
2023-08-26T02:41:05.807Z,20.90
2023-08-26T02:43:39.682Z,20.90
2023-08-26T02:46:11.424Z,20.80
2023-08-26T02:48:38.206Z,20.80
2023-08-26T02:51:05.196Z,20.70
2023-08-26T02:53:34.479Z,20.80
2023-08-26T02:56:02.108Z,20.80
2023-08-26T02:58:28.909Z,20.80
2023-08-26T03:00:56.528Z,20.70
2023-08-26T03:03:25.812Z,20.60
2023-08-26T03:05:56.208Z,20.70
2023-08-26T03:08:22.996Z,20.70
2023-08-26T03:11:00.136Z,20.70
2023-08-26T03:13:26.926Z,20.70
2023-08-26T03:15:53.705Z,20.70
2023-08-26T03:18:22.977Z,20.70
2023-08-26T03:20:52.276Z,20.70
2023-08-26T03:23:19.009Z,20.70
2023-08-26T03:25:50.099Z,20.70
2023-08-26T03:28:18.219Z,20.70
2023-08-26T03:30:45.054Z,20.80
2023-08-26T03:33:14.081Z,20.80
2023-08-26T03:35:41.267Z,20.80
2023-08-26T03:38:10.869Z,20.70
2023-08-26T03:40:43.865Z,20.70
2023-08-26T03:43:18.103Z,20.60
2023-08-26T03:45:47.534Z,20.60
2023-08-26T03:48:19.105Z,20.60
2023-08-26T03:50:52.351Z,20.60
2023-08-26T03:53:19.159Z,20.60
2023-08-26T03:55:48.810Z,20.50
2023-08-26T03:58:19.149Z,20.60
2023-08-26T04:00:45.950Z,20.60
2023-08-26T04:03:13.319Z,20.60
2023-08-26T04:05:41.366Z,20.50
2023-08-26T04:08:08.207Z,20.40
2023-08-26T04:10:35.226Z,20.40
2023-08-26T04:13:05.035Z,20.40
2023-08-26T04:15:34.266Z,20.50
2023-08-26T04:18:01.088Z,20.50
2023-08-26T04:20:27.974Z,20.50
2023-08-26T04:22:54.797Z,20.50
2023-08-26T04:25:21.563Z,20.50
2023-08-26T04:27:51.068Z,20.50
2023-08-26T04:30:20.348Z,20.50
2023-08-26T04:32:48.559Z,20.50
2023-08-26T04:35:20.032Z,20.50
2023-08-26T04:37:46.792Z,20.60
2023-08-26T04:40:16.741Z,20.60
2023-08-26T04:42:43.483Z,20.60
2023-08-26T04:45:10.543Z,20.60
2023-08-26T04:47:37.665Z,20.60
2023-08-26T04:50:05.233Z,20.60
2023-08-26T04:52:32.026Z,20.60
2023-08-26T04:55:00.950Z,20.60
2023-08-26T04:57:30.350Z,20.60
2023-08-26T04:59:59.449Z,20.60
2023-08-26T05:02:28.908Z,20.60
2023-08-26T05:04:59.505Z,20.70
2023-08-26T05:07:29.160Z,20.60
2023-08-26T05:09:55.938Z,20.60
2023-08-26T05:12:25.178Z,20.60
2023-08-26T05:14:52.044Z,20.60
2023-08-26T05:17:18.795Z,20.70
2023-08-26T05:19:47.840Z,20.60
2023-08-26T05:22:14.774Z,20.70
2023-08-26T05:24:42.190Z,20.70
2023-08-26T05:27:09.045Z,20.70
2023-08-26T05:29:36.804Z,20.70
2023-08-26T05:32:03.762Z,20.70
2023-08-26T05:34:30.618Z,20.60
2023-08-26T05:36:58.838Z,20.60
2023-08-26T05:39:27.784Z,20.70
2023-08-26T05:41:56.745Z,20.70
2023-08-26T05:44:23.698Z,20.70
2023-08-26T05:46:50.556Z,20.60
2023-08-26T05:49:17.353Z,20.60
2023-08-26T05:51:44.367Z,20.60
2023-08-26T05:54:16.934Z,20.70
2023-08-26T05:56:52.931Z,20.70
2023-08-26T05:59:24.392Z,20.70
2023-08-26T06:01:51.230Z,20.70
2023-08-26T06:04:20.558Z,20.70
2023-08-26T06:06:49.872Z,20.70
2023-08-26T06:09:16.659Z,20.80
2023-08-26T06:11:45.887Z,20.80
2023-08-26T06:14:13.330Z,20.80
2023-08-26T06:16:40.105Z,20.80
2023-08-26T06:19:10.655Z,20.80
2023-08-26T06:21:37.496Z,20.90
2023-08-26T06:24:04.468Z,20.80
2023-08-26T06:26:31.286Z,20.80
2023-08-26T06:29:00.147Z,20.80
2023-08-26T06:31:31.825Z,20.80
2023-08-26T06:34:03.128Z,20.80
2023-08-26T06:36:34.725Z,20.90
2023-08-26T06:39:01.558Z,20.90
2023-08-26T06:41:30.680Z,20.90
2023-08-26T06:43:57.630Z,21.00
2023-08-26T06:46:24.697Z,21.00
2023-08-26T06:48:56.394Z,21.00
2023-08-26T06:51:26.705Z,21.00
2023-08-26T06:53:57.903Z,21.00
2023-08-26T06:56:24.850Z,21.00
2023-08-26T06:58:53.742Z,21.00
2023-08-26T07:01:20.683Z,21.00
2023-08-26T07:03:50.568Z,21.00
2023-08-26T07:06:19.924Z,21.00
2023-08-26T07:08:46.733Z,21.00
2023-08-26T07:11:14.209Z,21.00
2023-08-26T07:13:41.025Z,21.10
2023-08-26T07:16:07.849Z,21.20
2023-08-26T07:18:34.685Z,21.20
2023-08-26T07:21:01.411Z,21.30
2023-08-26T07:23:28.324Z,21.40
2023-08-26T07:25:57.461Z,21.40
2023-08-26T07:28:24.291Z,21.40
2023-08-26T07:30:52.341Z,21.40
2023-08-26T07:33:19.194Z,21.40
2023-08-26T07:35:46.046Z,21.40
2023-08-26T07:38:15.289Z,21.50
2023-08-26T07:40:44.220Z,21.40
2023-08-26T07:43:11.170Z,21.40
2023-08-26T07:45:38.159Z,21.40
2023-08-26T07:50:37.285Z,21.40
2023-08-26T07:53:06.265Z,21.40
2023-08-26T07:55:37.961Z,21.30
2023-08-26T07:58:06.835Z,21.30
2023-08-26T08:00:33.589Z,21.40
2023-08-26T08:03:00.661Z,21.30
2023-08-26T08:05:27.729Z,21.30
2023-08-26T08:07:54.514Z,21.30
2023-08-26T08:10:21.551Z,21.30
2023-08-26T08:12:48.381Z,21.30
2023-08-26T08:15:17.633Z,21.30
2023-08-26T08:17:44.483Z,21.30
2023-08-26T08:20:11.799Z,21.40
2023-08-26T08:22:42.746Z,21.40
2023-08-26T08:25:12.311Z,21.50
2023-08-26T08:27:40.071Z,21.40
2023-08-26T08:30:10.024Z,21.50
2023-08-26T08:32:36.961Z,21.50
2023-08-26T08:35:04.779Z,21.40
2023-08-26T08:37:33.892Z,21.40
2023-08-26T08:40:03.252Z,21.40
2023-08-26T08:42:33.258Z,21.40
2023-08-26T08:45:00.788Z,21.50
2023-08-26T08:47:30.077Z,21.50
2023-08-26T08:49:58.388Z,21.50
2023-08-26T08:52:28.075Z,21.50
2023-08-26T08:54:54.823Z,21.50
2023-08-26T08:57:27.410Z,21.60
2023-08-26T08:59:58.479Z,21.60
2023-08-26T09:02:27.276Z,21.60
2023-08-26T09:04:56.466Z,21.60
2023-08-26T09:07:26.120Z,21.70
2023-08-26T09:10:01.192Z,21.80
2023-08-26T09:12:32.688Z,21.90
2023-08-26T09:15:01.948Z,22.10
2023-08-26T09:17:29.375Z,22.30
2023-08-26T09:19:57.596Z,22.30
2023-08-26T09:22:24.854Z,22.30
2023-08-26T09:25:01.812Z,22.30
2023-08-26T09:27:28.959Z,22.20
2023-08-26T09:29:55.875Z,22.10
2023-08-26T09:32:32.594Z,22.00
2023-08-26T09:38:01.574Z,22.10
2023-08-26T09:40:28.644Z,22.50
2023-08-26T09:42:55.964Z,23.10
2023-08-26T09:45:22.898Z,23.50
2023-08-26T09:47:50.810Z,23.80
2023-08-26T09:50:18.317Z,24.00
2023-08-26T09:52:46.656Z,24.00
2023-08-26T09:55:13.943Z,23.90
2023-08-26T09:57:41.169Z,23.60
2023-08-26T10:00:11.379Z,23.50
2023-08-26T10:02:50.842Z,23.30
2023-08-26T10:05:21.870Z,23.30
2023-08-26T10:07:52.090Z,23.30
2023-08-26T10:10:18.939Z,23.30
2023-08-26T10:12:48.664Z,23.30
2023-08-26T10:15:18.124Z,23.40
2023-08-26T10:17:50.047Z,23.40
2023-08-26T10:20:16.983Z,23.40
2023-08-26T10:22:43.794Z,23.50
2023-08-26T10:25:11.299Z,23.50
2023-08-26T10:27:41.500Z,23.60
2023-08-26T10:30:08.682Z,23.60
2023-08-26T10:32:44.068Z,23.50
2023-08-26T10:35:14.511Z,23.50
2023-08-26T10:37:49.297Z,23.50
2023-08-26T10:40:31.816Z,23.50
2023-08-26T10:43:04.050Z,23.50
2023-08-26T10:45:30.936Z,23.40
2023-08-26T10:47:57.998Z,23.50
2023-08-26T10:50:29.601Z,23.40
2023-08-26T10:53:00.983Z,23.40
2023-08-26T10:55:28.855Z,23.50
2023-08-26T10:58:03.295Z,23.50
2023-08-26T11:00:30.965Z,23.60
2023-08-26T11:03:01.885Z,23.60
2023-08-26T11:05:28.788Z,23.60
2023-08-26T11:07:57.175Z,23.70
2023-08-26T11:10:29.353Z,23.80
2023-08-26T11:12:56.522Z,23.80
2023-08-26T11:15:23.687Z,23.90
2023-08-26T11:17:52.314Z,23.90
2023-08-26T11:20:23.737Z,24.00
2023-08-26T11:22:50.955Z,24.00
2023-08-26T11:25:20.005Z,24.00
2023-08-26T11:27:47.203Z,24.00
2023-08-26T11:30:14.286Z,24.00
2023-08-26T11:32:41.729Z,23.90
2023-08-26T11:35:12.519Z,23.90
2023-08-26T11:37:43.759Z,23.90
2023-08-26T11:40:11.659Z,23.80
2023-08-26T11:42:38.550Z,23.80
2023-08-26T11:45:26.005Z,23.70
2023-08-26T11:47:54.076Z,23.70
2023-08-26T11:50:20.930Z,23.80
2023-08-26T11:52:48.198Z,24.00
2023-08-26T11:55:18.202Z,24.10
2023-08-26T11:57:48.546Z,24.20
2023-08-26T12:00:22.664Z,24.30
2023-08-26T12:02:50.139Z,24.30
2023-08-26T12:05:17.466Z,24.20
2023-08-26T12:07:45.734Z,24.10
2023-08-26T12:10:13.117Z,24.10
2023-08-26T12:12:40.869Z,24.20
2023-08-26T12:15:08.017Z,24.40
2023-08-26T12:17:56.015Z,24.40
2023-08-26T12:20:25.493Z,24.40
2023-08-26T12:22:53.217Z,24.50
2023-08-26T12:25:23.760Z,24.50
2023-08-26T12:27:50.569Z,24.50
2023-08-26T12:30:20.866Z,24.50
2023-08-26T12:32:50.235Z,24.50
2023-08-26T12:35:19.129Z,24.50
2023-08-26T12:37:45.945Z,24.50
2023-08-26T12:40:12.777Z,24.50
2023-08-26T12:42:40.709Z,24.50
2023-08-26T12:45:07.619Z,24.40
2023-08-26T12:47:34.595Z,24.50
2023-08-26T12:50:01.918Z,24.50
2023-08-26T12:52:28.890Z,24.60
2023-08-26T12:54:55.762Z,24.70
2023-08-26T12:57:22.626Z,24.70
2023-08-26T12:59:49.511Z,24.70
2023-08-26T13:02:16.325Z,24.70
2023-08-26T13:04:45.777Z,24.70
2023-08-26T13:07:12.798Z,24.70
2023-08-26T13:09:39.642Z,24.70
2023-08-26T13:12:06.651Z,24.70
2023-08-26T13:14:33.441Z,24.70
2023-08-26T13:17:00.441Z,24.70
2023-08-26T13:19:27.224Z,24.70
2023-08-26T13:21:56.299Z,24.70
2023-08-26T13:24:23.107Z,24.70
2023-08-26T13:26:49.909Z,24.70
2023-08-26T13:29:16.819Z,24.70
2023-08-26T13:31:46.101Z,24.70
2023-08-26T13:34:12.959Z,24.80
2023-08-26T13:36:50.880Z,24.70
2023-08-26T13:39:19.559Z,24.70
2023-08-26T13:41:48.853Z,24.60
2023-08-26T13:44:18.290Z,24.60
2023-08-26T13:46:45.252Z,24.60
2023-08-26T13:49:14.641Z,24.60
2023-08-26T13:51:41.476Z,24.50
2023-08-26T13:54:08.370Z,24.60
2023-08-26T13:56:35.252Z,24.60
2023-08-26T13:59:04.241Z,24.60
2023-08-26T14:01:35.682Z,24.60
2023-08-26T14:04:05.045Z,24.60
2023-08-26T14:06:31.989Z,24.50
2023-08-26T14:09:01.283Z,24.40
2023-08-26T14:11:32.320Z,24.40
2023-08-26T14:13:59.267Z,24.30
2023-08-26T14:16:29.157Z,24.30
2023-08-26T14:18:56.088Z,24.20
2023-08-26T14:21:25.336Z,24.10
2023-08-26T14:23:54.609Z,24.20
2023-08-26T14:26:21.578Z,24.10
2023-08-26T14:28:48.481Z,24.00
2023-08-26T14:31:15.295Z,23.90
2023-08-26T14:33:45.576Z,23.80
2023-08-26T14:36:12.429Z,23.70
2023-08-26T14:38:42.895Z,23.70
2023-08-26T14:41:12.019Z,23.60
2023-08-26T14:43:38.844Z,23.60
2023-08-26T14:46:05.654Z,23.60
2023-08-26T14:48:34.075Z,23.60
2023-08-26T14:51:04.008Z,23.50
2023-08-26T14:53:31.063Z,23.60
2023-08-26T14:56:04.032Z,23.60
2023-08-26T14:58:31.327Z,23.60
2023-08-26T15:00:58.229Z,23.50
2023-08-26T15:03:25.391Z,23.40
2023-08-26T15:06:02.039Z,23.40
2023-08-26T15:08:29.015Z,23.30
2023-08-26T15:10:58.673Z,23.20
2023-08-26T15:13:25.564Z,23.20
2023-08-26T15:15:54.792Z,23.10
2023-08-26T15:18:22.075Z,23.10
2023-08-26T15:20:49.541Z,23.10
2023-08-26T15:23:17.357Z,23.00
2023-08-26T15:25:44.860Z,23.00
2023-08-26T15:28:11.984Z,23.00
2023-08-26T15:30:41.385Z,22.90
2023-08-26T15:33:10.696Z,22.90
2023-08-26T15:35:41.518Z,22.90
2023-08-26T15:38:08.516Z,22.90
2023-08-26T15:40:35.426Z,22.80
2023-08-26T15:43:02.381Z,22.80
2023-08-26T15:45:29.901Z,22.80
2023-08-26T15:47:59.573Z,22.80
2023-08-26T15:50:26.691Z,22.80
2023-08-26T15:52:53.485Z,22.80
2023-08-26T15:55:20.315Z,22.80
2023-08-26T15:57:47.094Z,22.80
2023-08-26T16:00:17.929Z,22.80
2023-08-26T16:02:45.151Z,22.80
2023-08-26T16:05:12.163Z,22.70
2023-08-26T16:08:07.193Z,22.70
2023-08-26T16:10:34.719Z,22.70
2023-08-26T16:13:04.749Z,22.60
2023-08-26T16:15:34.596Z,22.60
2023-08-26T16:18:04.354Z,22.60
2023-08-26T16:20:31.279Z,22.60
2023-08-26T16:22:58.998Z,22.60
2023-08-26T16:25:26.279Z,22.60
2023-08-26T16:27:53.036Z,22.50
2023-08-26T16:30:19.886Z,22.50
2023-08-26T16:32:46.677Z,22.40
2023-08-26T16:35:13.640Z,22.40
2023-08-26T16:37:40.612Z,22.40
2023-08-26T16:40:10.248Z,22.40
2023-08-26T16:42:39.751Z,22.30
2023-08-26T16:45:11.797Z,22.30
2023-08-26T16:47:41.021Z,22.30
2023-08-26T16:50:08.044Z,22.30
2023-08-26T16:52:35.094Z,22.20
2023-08-26T16:55:02.565Z,22.20
2023-08-26T16:57:32.169Z,22.10
2023-08-26T17:00:05.247Z,22.10
2023-08-26T17:02:32.938Z,22.10
2023-08-26T17:04:59.784Z,22.10
2023-08-26T17:07:26.602Z,22.10
2023-08-26T17:09:53.712Z,22.10
2023-08-26T17:12:20.626Z,22.10
2023-08-26T17:14:51.842Z,22.10
2023-08-26T17:17:18.716Z,22.10
2023-08-26T17:19:45.508Z,22.00
2023-08-26T17:22:14.872Z,22.00
2023-08-26T17:24:42.833Z,21.90
2023-08-26T17:27:13.228Z,21.90
2023-08-26T17:29:40.131Z,22.00
2023-08-26T17:32:12.185Z,21.90
2023-08-26T17:34:41.602Z,21.90
2023-08-26T17:37:11.798Z,21.90
2023-08-26T17:39:38.712Z,21.90
2023-08-26T17:42:05.877Z,21.80
2023-08-26T17:44:36.258Z,21.80
2023-08-26T17:47:04.139Z,21.80
2023-08-26T17:49:34.027Z,21.70
2023-08-26T17:52:00.898Z,21.70
2023-08-26T17:54:27.725Z,21.70
2023-08-26T17:56:56.987Z,21.70
2023-08-26T17:59:25.948Z,21.60
2023-08-26T18:01:55.187Z,21.60
2023-08-26T18:04:24.630Z,21.60
2023-08-26T18:06:51.463Z,21.50
2023-08-26T18:09:18.262Z,21.50
2023-08-26T18:11:47.430Z,21.50
2023-08-26T18:14:14.588Z,21.50
2023-08-26T18:16:46.197Z,21.50
2023-08-26T18:19:15.787Z,21.50
2023-08-26T18:21:42.733Z,21.40
2023-08-26T18:24:09.780Z,21.40
2023-08-26T18:26:44.548Z,21.30
2023-08-26T18:29:14.933Z,21.20
2023-08-26T18:31:41.799Z,21.20
2023-08-26T18:34:10.412Z,21.10
2023-08-26T18:36:37.219Z,21.10
2023-08-26T18:39:06.419Z,21.10
2023-08-26T18:41:35.589Z,21.10
2023-08-26T18:44:02.398Z,21.00
2023-08-26T18:46:29.176Z,21.00
2023-08-26T18:48:56.593Z,21.00
2023-08-26T18:51:23.472Z,20.90
2023-08-26T18:53:50.984Z,20.90
2023-08-26T18:56:23.153Z,20.80
2023-08-26T18:58:52.449Z,20.80
2023-08-26T19:01:19.328Z,20.80
2023-08-26T19:03:46.191Z,20.70
2023-08-26T19:06:13.156Z,20.60
2023-08-26T19:08:40.254Z,20.60
2023-08-26T19:11:07.096Z,20.60
2023-08-26T19:13:37.720Z,20.60
2023-08-26T19:16:04.851Z,20.60
2023-08-26T19:18:31.784Z,20.50
2023-08-26T19:21:01.118Z,20.50
2023-08-26T19:23:27.933Z,20.50
2023-08-26T19:25:54.773Z,20.50
2023-08-26T19:28:21.749Z,20.50
2023-08-26T19:30:49.057Z,20.40
2023-08-26T19:33:16.408Z,20.40
2023-08-26T19:35:43.271Z,20.30
2023-08-26T19:38:10.120Z,20.30
2023-08-26T19:40:37.149Z,20.30
2023-08-26T19:43:04.118Z,20.30
2023-08-26T19:45:31.099Z,20.20
2023-08-26T19:48:00.648Z,20.20
2023-08-26T19:50:27.901Z,20.20
2023-08-26T19:52:57.253Z,20.20
2023-08-26T19:55:24.166Z,20.20
2023-08-26T19:57:51.050Z,20.20
2023-08-26T20:00:17.959Z,20.10
2023-08-26T20:02:44.991Z,20.10
2023-08-26T20:05:14.312Z,20.10
2023-08-26T20:07:41.157Z,20.10
2023-08-26T20:10:10.595Z,20.10
2023-08-26T20:12:39.960Z,20.00
2023-08-26T20:15:07.242Z,20.00
2023-08-26T20:17:36.820Z,20.00
2023-08-26T20:20:06.343Z,20.00
2023-08-26T20:22:35.767Z,19.90
2023-08-26T20:25:05.046Z,20.00
2023-08-26T20:27:32.067Z,20.00
2023-08-26T20:29:59.035Z,20.00
2023-08-26T20:32:25.943Z,20.00
2023-08-26T20:34:52.735Z,20.00
2023-08-26T20:37:21.635Z,20.10
2023-08-26T20:39:48.412Z,20.10
2023-08-26T20:42:15.477Z,20.10
2023-08-26T20:44:44.669Z,20.10
2023-08-26T20:47:11.496Z,20.10
2023-08-26T20:49:38.301Z,20.10
2023-08-26T20:52:07.595Z,20.10
2023-08-26T20:54:34.527Z,20.10
2023-08-26T20:57:03.406Z,20.10
2023-08-26T20:59:30.244Z,20.10
2023-08-26T21:01:59.234Z,20.10
2023-08-26T21:04:26.048Z,20.00
2023-08-26T21:06:54.158Z,20.10
2023-08-26T21:09:20.984Z,20.00
2023-08-26T21:11:47.829Z,20.00
2023-08-26T21:14:14.631Z,19.90
2023-08-26T21:16:41.562Z,19.90
2023-08-26T21:19:08.576Z,19.90
2023-08-26T21:21:35.474Z,19.80
2023-08-26T21:24:02.254Z,19.80
2023-08-26T21:26:29.132Z,19.80
2023-08-26T21:28:55.943Z,19.80
2023-08-26T21:31:23.126Z,19.70
2023-08-26T21:33:49.988Z,19.70
2023-08-26T21:36:16.873Z,19.70
2023-08-26T21:38:46.058Z,19.70
2023-08-26T21:41:12.810Z,19.60
2023-08-26T21:43:39.537Z,19.60
2023-08-26T21:46:06.456Z,19.60
2023-08-26T21:48:33.360Z,19.60
2023-08-26T21:51:00.411Z,19.60
2023-08-26T21:53:27.188Z,19.50
2023-08-26T21:55:54.484Z,19.40
2023-08-26T21:58:21.339Z,19.40
2023-08-26T22:00:48.390Z,19.50
2023-08-26T22:03:15.453Z,19.50
2023-08-26T22:05:42.214Z,19.50
2023-08-26T22:08:10.572Z,19.50
2023-08-26T22:10:40.333Z,19.50
2023-08-26T22:13:09.504Z,19.50
2023-08-26T22:15:39.516Z,19.50
2023-08-26T22:18:09.656Z,19.50
2023-08-26T22:20:41.754Z,19.50
2023-08-26T22:23:08.807Z,19.50
2023-08-26T22:25:35.673Z,19.50
2023-08-26T22:28:02.795Z,19.50
2023-08-26T22:30:29.818Z,19.50
2023-08-26T22:32:57.492Z,19.50
2023-08-26T22:35:24.608Z,19.60
2023-08-26T22:37:56.056Z,19.50
2023-08-26T22:40:22.933Z,19.60
2023-08-26T22:42:52.228Z,19.60
2023-08-26T22:45:18.985Z,19.60
2023-08-26T22:47:45.909Z,19.60
2023-08-26T22:50:12.757Z,19.60
2023-08-26T22:52:39.594Z,19.60
2023-08-26T22:55:07.095Z,19.60
2023-08-26T22:57:33.878Z,19.60
2023-08-26T23:00:03.751Z,19.60
2023-08-26T23:02:32.697Z,19.60
2023-08-26T23:04:59.777Z,19.60
2023-08-26T23:07:29.119Z,19.60
2023-08-26T23:09:59.816Z,19.60
2023-08-26T23:12:27.405Z,19.60
2023-08-26T23:14:55.036Z,19.60
2023-08-26T23:17:24.986Z,19.60
2023-08-26T23:19:51.863Z,19.60
2023-08-26T23:22:18.670Z,19.50
2023-08-26T23:24:45.754Z,19.50
2023-08-26T23:27:16.870Z,19.40
2023-08-26T23:29:43.951Z,19.40
2023-08-26T23:32:10.860Z,19.40
2023-08-26T23:34:37.813Z,19.30
2023-08-26T23:37:05.819Z,19.20
2023-08-26T23:39:32.719Z,19.20
2023-08-26T23:41:59.456Z,19.20
2023-08-26T23:44:31.140Z,19.20
2023-08-26T23:46:59.844Z,19.20
2023-08-26T23:49:26.628Z,19.20
2023-08-26T23:51:53.706Z,19.10
2023-08-26T23:54:20.584Z,19.10
2023-08-26T23:56:51.113Z,19.00
2023-08-26T23:59:18.035Z,19.10
